Time;durP1;ratioP1;P1;durP2;ratioP2;P2;SDS_P1;SDS_P2;PMS_P1;PMS_P2;Temp;Humidity;BMP_temperature;BMP_pressure;BME280_temperature;BME280_humidity;BME280_pressure;Samples;Min_cycle;Max_cycle;Signal;HPM_P1;HPM_P2
2021/05/26 00:00:06;;;;;;;1.58;0.32;;;;;;;;;;5034879;28;20029;-78
2021/05/26 00:02:32;;;;;;;2.08;0.40;;;;;;;;;;5032730;28;20025;-78
2021/05/26 00:04:58;;;;;;;0.55;0.45;;;;;;;;;;5032455;28;20075;-78
2021/05/26 00:07:24;;;;;;;0.63;0.30;;;;;;;;;;5037253;28;20044;-78
2021/05/26 00:09:51;;;;;;;0.75;0.28;;;;;;;;;;5036016;28;20029;-79
2021/05/26 00:12:17;;;;;;;1.27;0.60;;;;;;;;;;5036970;28;20083;-78
2021/05/26 00:14:43;;;;;;;2.25;0.40;;;;;;;;;;5049638;28;20037;-78
2021/05/26 00:17:09;;;;;;;0.68;0.30;;;;;;;;;;5054175;28;20073;-78
2021/05/26 00:19:37;;;;;;;1.25;0.68;;;;;;;;;;5051150;28;20037;-78
2021/05/26 00:22:04;;;;;;;1.08;0.40;;;;;;;;;;5038826;28;20021;-78
2021/05/26 00:24:30;;;;;;;1.35;0.30;;;;;;;;;;5026578;28;20053;-78
2021/05/26 00:26:56;;;;;;;1.63;0.50;;;;;;;;;;5014298;28;20033;-78
2021/05/26 00:29:22;;;;;;;0.90;0.43;;;;;;;;;;5014590;28;20045;-79
2021/05/26 00:31:48;;;;;;;0.35;0.30;;;;;;;;;;5015827;28;20018;-78
2021/05/26 00:34:14;;;;;;;0.40;0.40;;;;;;;;;;5031634;28;20178;-78
2021/05/26 00:36:41;;;;;;;0.35;0.30;;;;;;;;;;5035757;28;20062;-78
2021/05/26 00:39:07;;;;;;;1.10;0.40;;;;;;;;;;5034222;28;20048;-77
2021/05/26 00:41:34;;;;;;;1.88;0.47;;;;;;;;;;5034450;28;20033;-78
2021/05/26 00:44:03;;;;;;;1.13;0.50;;;;;;;;;;5034120;28;20075;-77
2021/05/26 00:46:30;;;;;;;0.68;0.30;;;;;;;;;;5033807;28;20083;-78
2021/05/26 00:48:56;;;;;;;0.75;0.50;;;;;;;;;;5033947;28;20025;-78
2021/05/26 00:51:22;;;;;;;1.45;0.65;;;;;;;;;;5035984;28;20095;-78
2021/05/26 00:53:48;;;;;;;1.50;0.50;;;;;;;;;;5035188;28;20060;-79
2021/05/26 00:56:14;;;;;;;0.38;0.38;;;;;;;;;;5035964;28;20033;-79
2021/05/26 00:58:43;;;;;;;0.35;0.32;;;;;;;;;;5035431;28;20025;-78
2021/05/26 01:01:09;;;;;;;0.82;0.40;;;;;;;;;;5036491;28;20026;-78
2021/05/26 01:03:35;;;;;;;0.35;0.22;;;;;;;;;;5042119;28;20025;-79
2021/05/26 01:06:01;;;;;;;0.63;0.22;;;;;;;;;;5036853;28;20056;-79
2021/05/26 01:08:28;;;;;;;0.45;0.30;;;;;;;;;;5036788;28;20035;-79
2021/05/26 01:10:54;;;;;;;0.30;0.30;;;;;;;;;;5036488;28;20482;-79
2021/05/26 01:13:22;;;;;;;1.05;0.40;;;;;;;;;;5035743;28;20036;-78
2021/05/26 01:15:49;;;;;;;0.15;0.15;;;;;;;;;;5035149;28;20026;-79
2021/05/26 01:18:18;;;;;;;0.32;0.20;;;;;;;;;;5035140;28;20030;-77
2021/05/26 01:20:44;;;;;;;0.73;0.30;;;;;;;;;;5035237;28;20116;-79
2021/05/26 01:23:10;;;;;;;0.75;0.20;;;;;;;;;;5035403;28;20448;-79
2021/05/26 01:25:36;;;;;;;0.10;0.10;;;;;;;;;;5034609;28;20475;-79
2021/05/26 01:28:03;;;;;;;0.50;0.22;;;;;;;;;;5035237;28;20025;-78
2021/05/26 01:30:29;;;;;;;0.30;0.20;;;;;;;;;;5034977;28;20028;-79
2021/05/26 01:32:55;;;;;;;3.30;0.30;;;;;;;;;;5036000;28;20040;-78
2021/05/26 01:35:21;;;;;;;1.98;0.40;;;;;;;;;;5034547;28;20485;-78
2021/05/26 01:37:48;;;;;;;0.20;0.20;;;;;;;;;;5035546;28;20028;-78
2021/05/26 01:40:17;;;;;;;2.17;0.30;;;;;;;;;;5034698;28;20025;-78
2021/05/26 01:42:44;;;;;;;0.22;0.20;;;;;;;;;;5034568;28;20033;-78
2021/05/26 01:45:12;;;;;;;2.13;0.30;;;;;;;;;;5035314;28;20033;-78
2021/05/26 01:47:38;;;;;;;0.60;0.28;;;;;;;;;;5035072;28;20033;-78
2021/05/26 01:50:04;;;;;;;0.95;0.40;;;;;;;;;;5034054;28;20041;-79
2021/05/26 01:52:31;;;;;;;1.33;0.38;;;;;;;;;;5067052;22;20045;-79
2021/05/26 01:54:57;;;;;;;2.78;0.20;;;;;;;;;;5066516;28;20106;-80
2021/05/26 01:57:23;;;;;;;0.30;0.30;;;;;;;;;;5068936;28;20033;-79
2021/05/26 01:59:49;;;;;;;2.42;0.68;;;;;;;;;;5069717;28;20064;-79
2021/05/26 02:02:15;;;;;;;1.40;0.52;;;;;;;;;;5069250;28;20090;-80
2021/05/26 02:04:41;;;;;;;0.93;0.20;;;;;;;;;;5039855;28;20032;-79
2021/05/26 02:07:13;;;;;;;0.35;0.20;;;;;;;;;;5067514;28;20092;-79
2021/05/26 02:09:39;;;;;;;2.05;0.47;;;;;;;;;;5071120;28;20084;-79
2021/05/26 02:12:24;;;;;;;0.40;0.32;;;;;;;;;;5071186;28;20017;-79
2021/05/26 02:14:55;;;;;;;1.58;0.35;;;;;;;;;;5065713;28;20023;-78
2021/05/26 02:17:21;;;;;;;0.98;0.40;;;;;;;;;;5046544;28;20026;-78
2021/05/26 02:19:48;;;;;;;0.40;0.30;;;;;;;;;;5049855;28;20033;-79
2021/05/26 02:22:14;;;;;;;0.70;0.40;;;;;;;;;;5050441;28;20030;-80
2021/05/26 02:24:41;;;;;;;2.17;0.30;;;;;;;;;;5052846;28;20052;-79
2021/05/26 02:27:07;;;;;;;0.45;0.20;;;;;;;;;;5064478;28;20036;-79
2021/05/26 02:29:33;;;;;;;0.35;0.20;;;;;;;;;;5069869;28;20028;-80
2021/05/26 02:31:59;;;;;;;0.52;0.50;;;;;;;;;;5072775;28;20029;-79
2021/05/26 02:34:25;;;;;;;0.90;0.35;;;;;;;;;;5045175;28;20093;-79
2021/05/26 02:36:51;;;;;;;0.80;0.25;;;;;;;;;;5059619;28;20086;-78
2021/05/26 02:39:18;;;;;;;0.43;0.40;;;;;;;;;;5073145;28;20029;-79
2021/05/26 02:41:44;;;;;;;1.50;0.43;;;;;;;;;;5070837;28;20032;-78
2021/05/26 02:44:10;;;;;;;0.45;0.30;;;;;;;;;;5075704;28;20072;-79
2021/05/26 02:46:38;;;;;;;0.52;0.30;;;;;;;;;;5071229;28;20053;-80
2021/05/26 02:49:05;;;;;;;1.00;0.30;;;;;;;;;;5074559;28;20029;-79
2021/05/26 02:51:31;;;;;;;0.45;0.30;;;;;;;;;;5073116;28;20039;-79
2021/05/26 02:53:58;;;;;;;0.32;0.30;;;;;;;;;;5071505;28;20029;-79
2021/05/26 02:56:24;;;;;;;0.52;0.30;;;;;;;;;;5070569;28;20033;-79
2021/05/26 02:58:50;;;;;;;0.82;0.30;;;;;;;;;;5069370;28;20025;-78
2021/05/26 03:01:16;;;;;;;1.25;0.47;;;;;;;;;;5069920;28;20106;-78
2021/05/26 03:03:43;;;;;;;0.73;0.50;;;;;;;;;;5050526;28;20021;-79
2021/05/26 03:06:09;;;;;;;1.35;0.47;;;;;;;;;;5047748;28;20037;-78
2021/05/26 03:08:35;;;;;;;0.40;0.40;;;;;;;;;;5033012;28;20108;-79
2021/05/26 03:11:01;;;;;;;0.65;0.20;;;;;;;;;;5029190;28;20040;-78
2021/05/26 03:13:27;;;;;;;1.02;0.22;;;;;;;;;;5033136;28;20034;-77
2021/05/26 03:15:54;;;;;;;1.10;0.30;;;;;;;;;;5040618;28;20018;-78
2021/05/26 03:18:21;;;;;;;1.75;0.30;;;;;;;;;;5053326;28;20026;-78
2021/05/26 03:20:49;;;;;;;0.35;0.32;;;;;;;;;;5054336;28;20037;-78
2021/05/26 03:23:15;;;;;;;0.88;0.30;;;;;;;;;;5046399;28;20481;-77
2021/05/26 03:25:41;;;;;;;0.73;0.28;;;;;;;;;;5049139;28;20030;-78
2021/05/26 03:28:08;;;;;;;1.60;0.40;;;;;;;;;;5046715;28;20386;-77
2021/05/26 03:30:34;;;;;;;0.93;0.40;;;;;;;;;;5047284;28;20085;-78
2021/05/26 03:33:01;;;;;;;0.98;0.40;;;;;;;;;;5041997;28;20028;-79
2021/05/26 03:35:27;;;;;;;0.55;0.30;;;;;;;;;;5035022;28;20017;-78
2021/05/26 03:37:54;;;;;;;0.80;0.28;;;;;;;;;;5041912;28;20021;-78
2021/05/26 03:40:20;;;;;;;1.08;0.25;;;;;;;;;;5041881;28;20025;-78
2021/05/26 03:42:46;;;;;;;2.53;0.50;;;;;;;;;;5042472;28;20362;-78
2021/05/26 03:45:13;;;;;;;0.95;0.40;;;;;;;;;;5052582;28;20041;-78
2021/05/26 03:47:39;;;;;;;2.15;0.25;;;;;;;;;;5046669;28;20022;-77
2021/05/26 03:50:07;;;;;;;0.57;0.40;;;;;;;;;;5040908;28;20094;-77
2021/05/26 03:52:33;;;;;;;0.82;0.40;;;;;;;;;;5047300;28;20049;-78
2021/05/26 03:54:59;;;;;;;1.35;0.28;;;;;;;;;;5063053;28;20025;-77
2021/05/26 03:57:25;;;;;;;1.15;0.47;;;;;;;;;;5074879;28;20088;-77
2021/05/26 03:59:51;;;;;;;7.35;1.00;;;;;;;;;;5058216;28;20847;-77
2021/05/26 04:02:17;;;;;;;0.63;0.57;;;;;;;;;;5057137;28;20082;-78
2021/05/26 04:04:44;;;;;;;0.73;0.47;;;;;;;;;;5042461;28;20024;-77
2021/05/26 04:07:10;;;;;;;0.30;0.30;;;;;;;;;;5040511;28;20483;-78
2021/05/26 04:09:36;;;;;;;0.55;0.30;;;;;;;;;;5039157;28;20021;-78
2021/05/26 04:12:02;;;;;;;1.48;0.70;;;;;;;;;;5051977;28;20026;-79
2021/05/26 04:14:28;;;;;;;0.38;0.22;;;;;;;;;;5054325;28;20017;-76
2021/05/26 04:16:54;;;;;;;0.25;0.25;;;;;;;;;;5055087;28;20096;-78
2021/05/26 04:19:20;;;;;;;1.10;0.32;;;;;;;;;;5051322;28;20049;-78
2021/05/26 04:21:46;;;;;;;0.80;0.30;;;;;;;;;;5052860;28;20093;-77
2021/05/26 04:24:12;;;;;;;0.52;0.45;;;;;;;;;;5040063;28;20040;-78
2021/05/26 04:26:38;;;;;;;1.35;0.50;;;;;;;;;;5038174;28;20013;-79
2021/05/26 04:29:07;;;;;;;0.40;0.35;;;;;;;;;;5039857;28;20493;-79
2021/05/26 04:31:33;;;;;;;1.10;0.40;;;;;;;;;;5036725;28;20028;-79
2021/05/26 04:33:59;;;;;;;1.85;0.75;;;;;;;;;;5029589;28;20069;-80
2021/05/26 04:36:25;;;;;;;0.80;0.50;;;;;;;;;;5038461;28;20442;-79
2021/05/26 04:38:51;;;;;;;1.10;0.57;;;;;;;;;;5037879;28;20021;-79
2021/05/26 04:41:17;;;;;;;0.85;0.40;;;;;;;;;;5038566;28;20025;-78
2021/05/26 04:43:43;;;;;;;2.60;0.68;;;;;;;;;;5046764;28;20124;-78
2021/05/26 04:46:09;;;;;;;0.35;0.30;;;;;;;;;;5056801;28;20044;-78
2021/05/26 04:48:35;;;;;;;0.50;0.40;;;;;;;;;;5058112;28;20021;-78
2021/05/26 04:51:01;;;;;;;1.02;0.40;;;;;;;;;;5063270;28;20083;-78
2021/05/26 04:53:27;;;;;;;0.98;0.70;;;;;;;;;;5055670;28;20033;-80
2021/05/26 04:55:53;;;;;;;0.70;0.70;;;;;;;;;;5037404;28;20398;-80
2021/05/26 04:58:19;;;;;;;1.58;0.57;;;;;;;;;;5037917;28;20462;-80
2021/05/26 05:00:45;;;;;;;0.52;0.50;;;;;;;;;;5038534;28;20558;-79
2021/05/26 05:03:12;;;;;;;1.10;0.60;;;;;;;;;;5041671;28;20117;-78
2021/05/26 05:05:38;;;;;;;0.57;0.50;;;;;;;;;;5030663;28;20021;-78
2021/05/26 05:08:05;;;;;;;0.88;0.60;;;;;;;;;;5037502;28;20030;-78
2021/05/26 05:10:32;;;;;;;1.95;0.70;;;;;;;;;;5037000;28;20072;-79
2021/05/26 05:12:58;;;;;;;0.80;0.60;;;;;;;;;;5037069;28;20104;-78
2021/05/26 05:15:24;;;;;;;0.52;0.52;;;;;;;;;;5036338;28;20427;-79
2021/05/26 05:17:51;;;;;;;2.13;0.70;;;;;;;;;;5039478;28;20028;-80
2021/05/26 05:20:20;;;;;;;1.75;0.63;;;;;;;;;;5042221;28;20053;-80
2021/05/26 05:22:53;;;;;;;0.73;0.30;;;;;;;;;;5048158;28;20470;-81
2021/05/26 05:25:19;;;;;;;1.45;0.40;;;;;;;;;;5062812;28;20161;-81
2021/05/26 05:27:45;;;;;;;1.15;0.52;;;;;;;;;;5062949;28;20021;-80
2021/05/26 05:30:12;;;;;;;0.57;0.57;;;;;;;;;;5060272;28;20036;-80
2021/05/26 05:32:38;;;;;;;0.32;0.30;;;;;;;;;;5054382;28;20376;-80
2021/05/26 05:35:05;;;;;;;1.38;0.50;;;;;;;;;;5034445;28;20109;-81
2021/05/26 05:37:31;;;;;;;1.65;0.40;;;;;;;;;;5036049;28;20026;-81
2021/05/26 05:39:57;;;;;;;1.40;0.52;;;;;;;;;;5045882;28;20026;-82
2021/05/26 05:42:24;;;;;;;1.00;0.60;;;;;;;;;;5055664;28;20097;-83
2021/05/26 05:44:50;;;;;;;2.33;0.50;;;;;;;;;;5043085;28;20029;-82
2021/05/26 05:47:16;;;;;;;0.50;0.40;;;;;;;;;;5043815;28;20073;-81
2021/05/26 05:49:42;;;;;;;0.30;0.30;;;;;;;;;;5044449;28;20025;-82
2021/05/26 05:52:10;;;;;;;0.45;0.40;;;;;;;;;;5045559;28;20093;-81
2021/05/26 05:54:36;;;;;;;5.57;2.75;;;;;;;;;;5046571;28;20344;-81
2021/05/26 05:57:03;;;;;;;6.93;3.33;;;;;;;;;;5045102;28;20025;-81
2021/05/26 05:59:30;;;;;;;4.22;2.67;;;;;;;;;;5045560;28;20048;-82
2021/05/26 06:01:56;;;;;;;4.32;2.63;;;;;;;;;;5045079;28;20033;-84
2021/05/26 06:04:22;;;;;;;3.22;2.40;;;;;;;;;;5037042;28;20056;-83
2021/05/26 06:06:48;;;;;;;2.50;2.08;;;;;;;;;;5045813;28;20033;-79
2021/05/26 06:09:14;;;;;;;1.08;0.98;;;;;;;;;;5058740;28;20081;-79
2021/05/26 06:11:40;;;;;;;2.10;0.85;;;;;;;;;;5059125;28;20041;-79
2021/05/26 06:14:07;;;;;;;1.70;0.70;;;;;;;;;;5042138;28;20043;-76
2021/05/26 06:16:37;;;;;;;2.08;0.55;;;;;;;;;;5046102;28;20022;-81
2021/05/26 06:19:04;;;;;;;2.78;1.00;;;;;;;;;;5043406;28;20075;-82
2021/05/26 06:21:30;;;;;;;0.80;0.50;;;;;;;;;;5045013;28;20018;-82
2021/05/26 06:23:56;;;;;;;1.42;0.60;;;;;;;;;;5046679;28;20033;-82
2021/05/26 06:26:22;;;;;;;0.60;0.50;;;;;;;;;;5043129;28;20071;-82
2021/05/26 06:28:48;;;;;;;0.85;0.52;;;;;;;;;;5044560;28;20017;-79
2021/05/26 06:31:15;;;;;;;0.30;0.30;;;;;;;;;;5037487;28;20026;-80
2021/05/26 06:33:44;;;;;;;1.10;0.60;;;;;;;;;;5027034;28;20024;-79
2021/05/26 06:36:11;;;;;;;0.68;0.60;;;;;;;;;;5043319;28;20018;-79
2021/05/26 06:38:37;;;;;;;1.15;0.50;;;;;;;;;;5047522;28;20051;-80
2021/05/26 06:41:04;;;;;;;1.10;0.60;;;;;;;;;;5048725;28;20028;-81
2021/05/26 06:43:30;;;;;;;2.55;0.70;;;;;;;;;;5045418;28;20025;-81
2021/05/26 06:45:56;;;;;;;0.95;0.50;;;;;;;;;;5044898;28;20033;-81
2021/05/26 06:48:23;;;;;;;0.52;0.40;;;;;;;;;;5042732;28;20409;-80
2021/05/26 06:50:49;;;;;;;0.88;0.88;;;;;;;;;;5045865;28;20040;-80
2021/05/26 06:53:15;;;;;;;0.40;0.40;;;;;;;;;;5046023;28;20048;-80
2021/05/26 06:55:41;;;;;;;0.75;0.60;;;;;;;;;;5043112;28;20022;-79
2021/05/26 06:58:07;;;;;;;1.55;0.50;;;;;;;;;;5058206;28;20036;-80
2021/05/26 07:00:34;;;;;;;3.80;0.93;;;;;;;;;;5040236;28;20386;-80
2021/05/26 07:03:00;;;;;;;1.63;0.70;;;;;;;;;;5039296;28;20036;-81
2021/05/26 07:05:27;;;;;;;1.15;0.65;;;;;;;;;;5046499;28;20063;-80
2021/05/26 07:07:53;;;;;;;2.65;0.60;;;;;;;;;;5026652;28;20520;-79
2021/05/26 07:10:20;;;;;;;0.47;0.47;;;;;;;;;;5035682;28;20413;-78
2021/05/26 07:12:46;;;;;;;1.48;0.68;;;;;;;;;;5048015;28;20017;-79
2021/05/26 07:15:13;;;;;;;0.85;0.30;;;;;;;;;;5035351;28;20067;-77
2021/05/26 07:17:40;;;;;;;2.80;0.73;;;;;;;;;;5035876;28;20018;-77
2021/05/26 07:20:06;;;;;;;2.88;1.10;;;;;;;;;;5051808;28;20030;-77
2021/05/26 07:22:32;;;;;;;1.20;0.45;;;;;;;;;;5036307;28;20026;-79
2021/05/26 07:24:58;;;;;;;1.40;0.60;;;;;;;;;;5035152;28;20538;-79
2021/05/26 07:27:24;;;;;;;2.30;1.20;;;;;;;;;;5037462;28;20025;-80
2021/05/26 07:29:51;;;;;;;3.72;1.15;;;;;;;;;;5038734;28;20053;-79
2021/05/26 07:32:17;;;;;;;0.47;0.40;;;;;;;;;;5037613;28;20101;-80
2021/05/26 07:34:43;;;;;;;3.63;1.00;;;;;;;;;;5037821;28;20021;-79
2021/05/26 07:37:09;;;;;;;0.98;0.55;;;;;;;;;;5038738;28;20021;-79
2021/05/26 07:39:36;;;;;;;1.10;0.47;;;;;;;;;;5040876;28;20041;-78
2021/05/26 07:42:06;;;;;;;0.63;0.52;;;;;;;;;;5039706;28;20045;-80
2021/05/26 07:44:32;;;;;;;0.57;0.30;;;;;;;;;;5040100;28;20109;-78
2021/05/26 07:46:58;;;;;;;0.68;0.52;;;;;;;;;;5039243;28;20101;-79
2021/05/26 07:49:25;;;;;;;1.85;0.50;;;;;;;;;;5036369;28;20036;-78
2021/05/26 07:51:51;;;;;;;0.45;0.35;;;;;;;;;;5037424;28;20101;-78
2021/05/26 07:54:18;;;;;;;0.68;0.47;;;;;;;;;;5032970;28;20025;-79
2021/05/26 07:56:45;;;;;;;0.77;0.40;;;;;;;;;;5036900;28;20033;-78
2021/05/26 07:59:11;;;;;;;2.22;0.60;;;;;;;;;;5043806;28;20489;-79
2021/05/26 08:01:42;;;;;;;1.08;0.65;;;;;;;;;;5043099;28;20093;-80
2021/05/26 08:04:08;;;;;;;2.83;0.47;;;;;;;;;;5044469;28;20021;-79
2021/05/26 08:06:34;;;;;;;0.73;0.73;;;;;;;;;;5043657;28;20493;-80
2021/05/26 08:09:00;;;;;;;1.00;0.63;;;;;;;;;;5040704;28;20025;-80
2021/05/26 08:11:26;;;;;;;1.00;0.52;;;;;;;;;;5037924;28;20031;-79
2021/05/26 08:13:52;;;;;;;2.42;0.85;;;;;;;;;;5039239;28;20022;-77
2021/05/26 08:16:19;;;;;;;2.10;0.73;;;;;;;;;;5038446;28;20104;-78
2021/05/26 08:18:45;;;;;;;3.30;0.60;;;;;;;;;;5040963;28;20029;-79
2021/05/26 08:21:11;;;;;;;2.97;0.55;;;;;;;;;;5043024;28;20029;-78
2021/05/26 08:23:38;;;;;;;1.45;0.55;;;;;;;;;;5038495;28;20079;-78
2021/05/26 08:26:04;;;;;;;1.50;0.80;;;;;;;;;;5043290;28;20029;-80
2021/05/26 08:28:30;;;;;;;1.77;0.68;;;;;;;;;;5041003;28;20112;-80
2021/05/26 08:30:56;;;;;;;1.85;0.80;;;;;;;;;;5038698;28;20485;-81
2021/05/26 08:33:22;;;;;;;1.10;0.60;;;;;;;;;;5053748;28;20021;-79
2021/05/26 08:35:48;;;;;;;1.00;0.85;;;;;;;;;;5038307;28;20049;-80
2021/05/26 08:38:14;;;;;;;2.28;0.80;;;;;;;;;;5038051;28;20093;-79
2021/05/26 08:40:41;;;;;;;2.08;0.65;;;;;;;;;;5038058;28;20026;-79
2021/05/26 08:43:07;;;;;;;1.73;0.60;;;;;;;;;;5038598;28;20026;-79
2021/05/26 08:45:33;;;;;;;0.60;0.30;;;;;;;;;;5036778;28;20117;-79
2021/05/26 08:48:04;;;;;;;0.47;0.40;;;;;;;;;;5037207;28;20376;-78
2021/05/26 08:50:30;;;;;;;1.13;0.50;;;;;;;;;;5038092;28;20033;-79
2021/05/26 08:52:56;;;;;;;0.63;0.50;;;;;;;;;;5036802;28;20072;-78
2021/05/26 08:55:23;;;;;;;1.23;0.70;;;;;;;;;;5038577;28;20025;-77
2021/05/26 08:57:49;;;;;;;1.30;0.82;;;;;;;;;;5044093;28;20100;-77
2021/05/26 09:00:16;;;;;;;2.38;0.90;;;;;;;;;;5043488;28;20049;-81
2021/05/26 09:02:42;;;;;;;0.55;0.52;;;;;;;;;;5043799;28;20025;-78
2021/05/26 09:05:28;;;;;;;2.00;0.80;;;;;;;;;;5052529;28;20033;-83
2021/05/26 09:07:56;;;;;;;0.73;0.38;;;;;;;;;;5036198;28;20010;-78
2021/05/26 09:10:22;;;;;;;1.55;0.77;;;;;;;;;;5025411;28;20498;-79
2021/05/26 09:12:50;;;;;;;1.88;0.60;;;;;;;;;;5025190;28;20139;-79
2021/05/26 09:15:18;;;;;;;0.85;0.52;;;;;;;;;;5024675;28;20299;-78
2021/05/26 09:17:45;;;;;;;1.65;0.45;;;;;;;;;;5025933;28;20029;-79
2021/05/26 09:20:13;;;;;;;1.75;0.73;;;;;;;;;;5041982;28;20098;-77
2021/05/26 09:22:42;;;;;;;2.92;0.68;;;;;;;;;;5040522;28;20425;-79
2021/05/26 09:25:09;;;;;;;2.75;0.60;;;;;;;;;;5042060;28;20024;-79
2021/05/26 09:27:38;;;;;;;2.28;0.80;;;;;;;;;;5042037;28;20033;-78
2021/05/26 09:30:04;;;;;;;1.35;0.45;;;;;;;;;;5041706;28;20030;-79
2021/05/26 09:32:33;;;;;;;1.98;0.77;;;;;;;;;;5039327;28;20033;-80
2021/05/26 09:35:00;;;;;;;1.30;0.70;;;;;;;;;;5029506;28;20372;-79
2021/05/26 09:37:30;;;;;;;2.05;0.88;;;;;;;;;;5034418;28;20053;-80
2021/05/26 09:40:03;;;;;;;3.35;0.80;;;;;;;;;;5036974;28;20037;-78
2021/05/26 09:42:38;;;;;;;7.22;1.17;;;;;;;;;;5036016;28;20092;-78
2021/05/26 09:45:04;;;;;;;1.90;1.50;;;;;;;;;;5038117;28;20025;-80
2021/05/26 09:47:34;;;;;;;5.50;1.52;;;;;;;;;;5034488;28;20025;-80
2021/05/26 09:50:16;;;;;;;1.65;0.85;;;;;;;;;;5052894;28;20072;-81
2021/05/26 09:53:01;;;;;;;3.65;1.35;;;;;;;;;;5037519;28;20037;-79
2021/05/26 09:55:32;;;;;;;7.07;4.00;;;;;;;;;;5028141;28;20050;-79
2021/05/26 09:57:59;;;;;;;6.30;2.83;;;;;;;;;;5038144;28;20048;-80
2021/05/26 10:00:26;;;;;;;4.05;0.88;;;;;;;;;;5043407;28;20025;-79
2021/05/26 10:02:52;;;;;;;1.25;1.15;;;;;;;;;;5042827;28;20033;-79
2021/05/26 10:05:19;;;;;;;2.05;0.60;;;;;;;;;;5036716;28;20022;-80
2021/05/26 10:07:51;;;;;;;0.85;0.77;;;;;;;;;;5034124;28;20436;-79
2021/05/26 10:10:18;;;;;;;;;;;;;;;;;;5032323;28;20037;-80
2021/05/26 10:12:44;;;;;;;1.70;0.90;;;;;;;;;;5038485;28;19905;-78
2021/05/26 10:15:12;;;;;;;2.00;1.00;;;;;;;;;;5055582;28;20055;-79
2021/05/26 10:17:41;;;;;;;3.97;1.65;;;;;;;;;;5040552;28;20044;-79
2021/05/26 10:20:13;;;;;;;5.60;2.53;;;;;;;;;;5042865;28;20490;-81
2021/05/26 10:22:39;;;;;;;1.65;1.55;;;;;;;;;;5048398;28;20081;-82
2021/05/26 10:25:10;;;;;;;1.42;1.10;;;;;;;;;;5047699;28;20026;-82
2021/05/26 10:27:39;;;;;;;2.15;1.30;;;;;;;;;;5046142;28;20025;-80
2021/05/26 10:30:07;;;;;;;2.60;1.83;;;;;;;;;;5047955;28;20033;-82
2021/05/26 10:32:56;;;;;;;6.60;3.15;;;;;;;;;;5049285;28;20535;-80
2021/05/26 10:35:41;;;;;;;5.55;3.95;;;;;;;;;;5050521;28;20083;-82
2021/05/26 10:38:09;;;;;;;3.10;1.60;;;;;;;;;;5046192;28;20030;-82
2021/05/26 10:40:45;;;;;;;2.75;1.77;;;;;;;;;;5047029;28;20029;-80
2021/05/26 10:43:14;;;;;;;8.07;4.93;;;;;;;;;;5045960;28;20283;-80
2021/05/26 10:45:40;;;;;;;4.18;2.50;;;;;;;;;;5061553;28;20166;-81
2021/05/26 10:48:06;;;;;;;8.77;3.92;;;;;;;;;;5046249;28;20030;-80
2021/05/26 10:50:45;;;;;;;11.73;5.28;;;;;;;;;;5049442;28;20037;-82
2021/05/26 10:53:15;;;;;;;5.47;3.33;;;;;;;;;;5047408;28;20056;-81
2021/05/26 10:55:46;;;;;;;5.30;4.47;;;;;;;;;;5047187;28;20127;-83
2021/05/26 10:58:25;;;;;;;4.68;3.60;;;;;;;;;;5039579;28;20475;-79
2021/05/26 11:00:57;;;;;;;5.93;4.45;;;;;;;;;;5042929;28;20028;-80
2021/05/26 11:03:36;;;;;;;3.08;2.40;;;;;;;;;;5042206;28;20029;-79
2021/05/26 11:06:05;;;;;;;1.65;1.55;;;;;;;;;;5035090;28;20428;-79
2021/05/26 11:08:35;;;;;;;1.23;0.85;;;;;;;;;;5040460;28;20029;-78
2021/05/26 11:11:20;;;;;;;1.55;0.77;;;;;;;;;;5038783;28;20022;-79
2021/05/26 11:14:04;;;;;;;1.80;0.88;;;;;;;;;;5041116;28;20553;-80
2021/05/26 11:16:52;;;;;;;3.10;0.70;;;;;;;;;;5025048;28;20030;-80
2021/05/26 11:19:20;;;;;;;1.67;0.80;;;;;;;;;;5038632;28;20096;-81
2021/05/26 11:21:53;;;;;;;4.10;1.05;;;;;;;;;;5040015;28;20014;-79
2021/05/26 11:24:19;;;;;;;5.75;1.00;;;;;;;;;;5040878;28;20045;-81
2021/05/26 11:26:45;;;;;;;2.30;0.65;;;;;;;;;;5033474;28;20034;-81
2021/05/26 11:29:11;;;;;;;1.25;0.80;;;;;;;;;;5039156;28;20546;-80
2021/05/26 11:31:39;;;;;;;2.13;0.70;;;;;;;;;;5042370;28;20033;-81
2021/05/26 11:34:08;;;;;;;1.67;0.60;;;;;;;;;;5040756;28;20064;-81
2021/05/26 11:36:43;;;;;;;2.45;0.73;;;;;;;;;;5038439;28;20090;-81
2021/05/26 11:39:20;;;;;;;2.25;1.00;;;;;;;;;;5039288;28;20478;-80
2021/05/26 11:41:46;;;;;;;1.77;0.85;;;;;;;;;;5040087;28;20065;-79
2021/05/26 11:44:12;;;;;;;2.95;1.17;;;;;;;;;;5040828;28;20028;-81
2021/05/26 11:46:38;;;;;;;1.40;0.80;;;;;;;;;;5041089;28;20029;-81
2021/05/26 11:49:12;;;;;;;1.35;0.73;;;;;;;;;;5039821;28;20026;-80
2021/05/26 11:51:39;;;;;;;1.67;0.80;;;;;;;;;;5055688;28;20041;-80
2021/05/26 11:54:05;;;;;;;1.33;0.68;;;;;;;;;;5040134;28;20028;-80
2021/05/26 11:56:32;;;;;;;1.80;1.10;;;;;;;;;;5040191;28;20339;-81
2021/05/26 11:58:58;;;;;;;1.75;0.75;;;;;;;;;;5044880;28;20021;-81
2021/05/26 12:01:34;;;;;;;3.13;0.80;;;;;;;;;;5062334;28;20089;-80
2021/05/26 12:04:01;;;;;;;2.45;0.70;;;;;;;;;;5041239;28;20435;-80
2021/05/26 12:06:27;;;;;;;1.45;0.80;;;;;;;;;;5039304;28;20041;-80
2021/05/26 12:08:54;;;;;;;2.42;0.80;;;;;;;;;;5029078;28;20066;-80
2021/05/26 12:11:24;;;;;;;2.10;0.70;;;;;;;;;;5019101;28;20102;-80
2021/05/26 12:13:50;;;;;;;1.33;0.75;;;;;;;;;;5019066;28;20018;-80
2021/05/26 12:16:21;;;;;;;0.45;0.45;;;;;;;;;;5021986;28;20033;-82
2021/05/26 12:18:54;;;;;;;1.02;0.65;;;;;;;;;;5025496;28;20037;-83
2021/05/26 12:21:21;;;;;;;4.30;0.90;;;;;;;;;;5045864;28;20029;-83
2021/05/26 12:23:48;;;;;;;2.30;1.15;;;;;;;;;;5043134;28;20040;-83
2021/05/26 12:26:32;;;;;;;2.25;0.93;;;;;;;;;;5041586;28;20022;-83
2021/05/26 12:29:05;;;;;;;1.75;0.70;;;;;;;;;;5035561;28;20049;-83
2021/05/26 12:31:32;;;;;;;9.55;0.95;;;;;;;;;;5041825;28;20022;-80
2021/05/26 12:33:58;;;;;;;4.43;1.40;;;;;;;;;;5040536;28;20033;-82
2021/05/26 12:36:27;;;;;;;2.53;1.20;;;;;;;;;;5041224;28;20535;-79
2021/05/26 12:39:00;;;;;;;1.38;0.60;;;;;;;;;;5036407;28;20018;-81
2021/05/26 12:41:33;;;;;;;1.67;0.75;;;;;;;;;;5039266;28;20056;-80
2021/05/26 12:44:17;;;;;;;3.75;0.93;;;;;;;;;;5036723;28;20087;-78
2021/05/26 12:46:44;;;;;;;2.65;0.95;;;;;;;;;;5037809;28;20366;-79
2021/05/26 12:49:29;;;;;;;1.70;0.70;;;;;;;;;;5034328;28;20036;-79
2021/05/26 12:51:56;;;;;;;1.85;0.98;;;;;;;;;;5034400;28;20025;-79
2021/05/26 12:54:22;;;;;;;2.28;0.93;;;;;;;;;;5038350;28;20037;-80
2021/05/26 12:57:03;;;;;;;2.92;0.82;;;;;;;;;;5038702;28;20045;-78
2021/05/26 12:59:36;;;;;;;1.50;0.52;;;;;;;;;;5028970;28;20030;-80
2021/05/26 13:02:12;;;;;;;3.17;1.33;;;;;;;;;;5034843;28;20026;-78
2021/05/26 13:04:48;;;;;;;2.70;1.42;;;;;;;;;;5029267;28;20028;-78
2021/05/26 13:07:23;;;;;;;1.52;0.90;;;;;;;;;;5054573;28;20018;-78
2021/05/26 13:09:49;;;;;;;1.33;0.90;;;;;;;;;;5040244;28;20041;-80
2021/05/26 13:12:46;;;;;;;3.10;1.17;;;;;;;;;;5037081;28;20047;-80
2021/05/26 13:15:24;;;;;;;8.27;1.40;;;;;;;;;;5026519;28;20446;-80
2021/05/26 13:17:54;;;;;;;1.25;0.88;;;;;;;;;;5037516;28;20554;-81
2021/05/26 13:20:28;;;;;;;2.75;2.03;;;;;;;;;;5028097;28;20040;-80
2021/05/26 13:22:55;;;;;;;3.25;1.40;;;;;;;;;;5037266;28;20056;-79
2021/05/26 13:25:21;;;;;;;3.10;1.48;;;;;;;;;;5037790;28;20056;-79
2021/05/26 13:27:51;;;;;;;3.45;1.63;;;;;;;;;;5041109;28;20033;-80
2021/05/26 13:30:21;;;;;;;4.63;1.20;;;;;;;;;;5034752;28;20382;-78
2021/05/26 13:32:48;;;;;;;4.25;1.25;;;;;;;;;;5035435;28;20040;-77
2021/05/26 13:35:14;;;;;;;3.22;1.15;;;;;;;;;;5035063;28;20395;-78
2021/05/26 13:37:41;;;;;;;4.78;1.33;;;;;;;;;;5037515;28;20025;-80
2021/05/26 13:40:07;;;;;;;8.05;1.40;;;;;;;;;;5038388;28;20045;-78
2021/05/26 13:42:35;;;;;;;1.95;1.00;;;;;;;;;;5038675;28;20095;-79
2021/05/26 13:45:01;;;;;;;4.20;1.33;;;;;;;;;;5037028;28;20501;-79
2021/05/26 13:47:27;;;;;;;3.17;1.42;;;;;;;;;;5038043;28;20037;-78
2021/05/26 13:49:53;;;;;;;3.67;1.65;;;;;;;;;;5037914;28;20040;-77
2021/05/26 13:52:19;;;;;;;2.13;1.35;;;;;;;;;;5038682;28;20025;-79
2021/05/26 13:54:45;;;;;;;2.55;1.33;;;;;;;;;;5048315;28;20059;-79
2021/05/26 13:57:12;;;;;;;4.65;1.42;;;;;;;;;;5050764;28;20107;-79
2021/05/26 13:59:38;;;;;;;4.70;1.90;;;;;;;;;;5050753;28;20112;-79
2021/05/26 14:02:04;;;;;;;2.65;1.13;;;;;;;;;;5049134;28;20383;-79
2021/05/26 14:04:30;;;;;;;3.17;1.60;;;;;;;;;;5043592;28;20044;-80
2021/05/26 14:06:56;;;;;;;2.17;1.10;;;;;;;;;;5047378;28;20025;-79
2021/05/26 14:09:23;;;;;;;3.65;1.73;;;;;;;;;;5047749;28;20029;-81
2021/05/26 14:11:49;;;;;;;3.08;1.45;;;;;;;;;;5051850;28;20029;-81
2021/05/26 14:14:18;;;;;;;5.55;1.40;;;;;;;;;;5049734;28;20020;-78
2021/05/26 14:16:44;;;;;;;4.13;1.52;;;;;;;;;;5050475;28;20022;-80
2021/05/26 14:19:10;;;;;;;4.65;1.20;;;;;;;;;;5043950;28;20079;-77
2021/05/26 14:21:38;;;;;;;5.25;1.30;;;;;;;;;;5057934;28;20017;-77
2021/05/26 14:24:04;;;;;;;4.40;1.38;;;;;;;;;;5059966;28;20039;-77
2021/05/26 14:26:31;;;;;;;4.43;1.45;;;;;;;;;;5053715;28;20038;-80
2021/05/26 14:28:57;;;;;;;5.15;1.23;;;;;;;;;;5051412;28;20048;-81
2021/05/26 14:31:23;;;;;;;3.75;1.10;;;;;;;;;;5052272;28;20040;-80
2021/05/26 14:33:50;;;;;;;6.53;1.25;;;;;;;;;;5058448;28;20170;-80
2021/05/26 14:36:19;;;;;;;4.40;1.60;;;;;;;;;;5058807;28;20104;-80
2021/05/26 14:39:13;;;;;;;3.42;1.20;;;;;;;;;;5058665;28;20016;-79
2021/05/26 14:41:32;;;;;;;6.50;1.55;;;;;;;;;;5058520;28;20018;-78
2021/05/26 14:44:02;;;;;;;4.95;1.60;;;;;;;;;;5057737;28;20052;-79
2021/05/26 14:46:28;;;;;;;7.13;2.20;;;;;;;;;;5057878;28;20032;-81